createdAt,value
2023-02-07T00:01:20.595Z,82.42
2023-02-07T00:03:49.932Z,82.71
2023-02-07T00:06:20.057Z,81.55
2023-02-07T00:08:48.210Z,81.69
2023-02-07T00:11:17.272Z,80.37
2023-02-07T00:13:45.403Z,81.59
2023-02-07T00:16:13.300Z,81.29
2023-02-07T00:18:41.407Z,80.13
2023-02-07T00:21:13.200Z,81.28
2023-02-07T00:23:40.925Z,81.33
2023-02-07T00:26:09.419Z,81.42
2023-02-07T00:28:37.489Z,81.89
2023-02-07T00:31:06.998Z,81.40
2023-02-07T00:33:35.509Z,81.34
2023-02-07T00:36:04.852Z,81.23
2023-02-07T00:38:34.353Z,80.47
2023-02-07T00:41:02.804Z,79.92
2023-02-07T00:43:30.991Z,79.12
2023-02-07T00:45:59.479Z,80.16
2023-02-07T00:48:27.100Z,80.16
2023-02-07T00:50:54.796Z,81.51
2023-02-07T00:53:22.582Z,81.40
2023-02-07T00:55:51.476Z,79.91
2023-02-07T00:58:18.945Z,79.41
2023-02-07T01:00:46.543Z,81.05
2023-02-07T01:03:13.997Z,80.25
2023-02-07T01:05:41.650Z,79.56
2023-02-07T01:08:09.383Z,80.23
2023-02-07T01:10:39.465Z,80.18
2023-02-07T01:13:08.300Z,80.35
2023-02-07T01:15:37.821Z,79.66
2023-02-07T01:18:06.966Z,79.20
2023-02-07T01:20:34.546Z,79.57
2023-02-07T01:23:02.039Z,80.44
2023-02-07T01:25:29.571Z,79.25
2023-02-07T01:27:57.054Z,78.95
2023-02-07T01:30:25.875Z,79.03
2023-02-07T01:32:53.325Z,77.82
2023-02-07T01:35:21.328Z,80.35
2023-02-07T01:37:48.772Z,79.25
2023-02-07T01:40:16.770Z,80.06
2023-02-07T01:42:44.196Z,80.12
2023-02-07T01:45:24.245Z,78.98
2023-02-07T01:47:55.009Z,78.78
2023-02-07T01:50:23.591Z,77.13
2023-02-07T01:52:51.546Z,78.32
2023-02-07T01:55:23.919Z,77.96
2023-02-07T01:57:53.490Z,78.47
2023-02-07T02:00:21.967Z,77.40
2023-02-07T02:02:49.481Z,77.43
2023-02-07T02:05:19.969Z,77.77
2023-02-07T02:07:47.411Z,77.58
2023-02-07T02:10:16.918Z,77.95
2023-02-07T02:12:56.275Z,77.69
2023-02-07T02:15:33.084Z,77.16
2023-02-07T02:18:17.591Z,77.49
2023-02-07T02:21:13.533Z,77.37
2023-02-07T02:23:51.473Z,79.33
2023-02-07T02:26:48.034Z,78.80
2023-02-07T02:29:37.837Z,78.92
2023-02-07T02:32:27.508Z,80.20
2023-02-07T02:35:03.993Z,77.95
2023-02-07T02:37:41.975Z,78.58
2023-02-07T02:40:14.999Z,80.17
2023-02-07T02:42:47.634Z,80.70
2023-02-07T02:45:19.975Z,79.62
2023-02-07T02:47:50.636Z,78.12
2023-02-07T02:50:24.127Z,80.28
2023-02-07T02:52:51.585Z,79.80
2023-02-07T02:55:32.364Z,80.50
2023-02-07T02:58:11.646Z,80.85
2023-02-07T03:00:51.771Z,79.84
2023-02-07T03:03:37.244Z,80.47
2023-02-07T03:06:20.959Z,80.56
2023-02-07T03:08:58.355Z,77.82
2023-02-07T03:11:27.869Z,79.37
2023-02-07T03:14:06.002Z,80.83
2023-02-07T03:16:39.556Z,79.88
2023-02-07T03:19:10.857Z,78.63
2023-02-07T03:21:43.804Z,78.74
2023-02-07T03:24:16.082Z,78.44
2023-02-07T03:26:46.794Z,78.95
2023-02-07T03:29:16.728Z,77.45
2023-02-07T03:31:49.361Z,78.29
2023-02-07T03:34:20.362Z,78.04
2023-02-07T03:36:55.848Z,78.08
2023-02-07T03:39:23.545Z,79.29
2023-02-07T03:41:56.463Z,79.79
2023-02-07T03:44:27.015Z,81.09
2023-02-07T03:46:55.519Z,79.80
2023-02-07T03:49:23.220Z,80.21
2023-02-07T03:51:52.017Z,78.97
2023-02-07T03:54:19.773Z,78.12
2023-02-07T03:56:47.227Z,78.51
2023-02-07T03:59:14.674Z,78.71
2023-02-07T04:01:42.734Z,78.33
2023-02-07T04:04:11.418Z,78.48
2023-02-07T04:06:39.446Z,79.39
2023-02-07T04:09:10.716Z,79.89
2023-02-07T04:11:39.148Z,80.01
2023-02-07T04:14:06.625Z,79.10
2023-02-07T04:16:34.488Z,77.99
2023-02-07T04:19:01.935Z,79.48
2023-02-07T04:21:29.385Z,77.99
2023-02-07T04:23:56.837Z,78.35
2023-02-07T04:26:25.643Z,78.78
2023-02-07T04:28:53.134Z,77.99
2023-02-07T04:31:20.588Z,78.84
2023-02-07T04:33:49.161Z,79.05
2023-02-07T04:36:16.702Z,79.38
2023-02-07T04:38:44.770Z,79.45
2023-02-07T04:41:12.247Z,79.11
2023-02-07T04:43:40.978Z,79.90
2023-02-07T04:46:09.880Z,79.69
2023-02-07T04:48:37.963Z,80.76
2023-02-07T04:51:05.698Z,79.93
2023-02-07T04:53:33.315Z,79.56
2023-02-07T04:56:00.756Z,79.46
2023-02-07T04:58:28.419Z,78.20
2023-02-07T05:00:57.195Z,76.90
2023-02-07T05:03:24.636Z,78.15
2023-02-07T05:05:54.563Z,77.16
2023-02-07T05:08:22.910Z,77.73
2023-02-07T05:10:53.530Z,78.71
2023-02-07T05:13:21.149Z,77.98
2023-02-07T05:15:48.855Z,80.16
2023-02-07T05:18:17.696Z,78.84
2023-02-07T05:20:45.269Z,78.99
2023-02-07T05:23:12.756Z,78.71
2023-02-07T05:25:42.160Z,78.04
2023-02-07T05:28:09.828Z,79.08
2023-02-07T05:30:37.845Z,79.22
2023-02-07T05:33:04.452Z,79.70
2023-02-07T05:35:34.383Z,79.06
2023-02-07T05:38:02.189Z,78.61
2023-02-07T05:40:29.633Z,78.68
2023-02-07T05:42:57.030Z,77.38
2023-02-07T05:45:24.452Z,78.14
2023-02-07T05:47:51.949Z,79.25
2023-02-07T05:50:19.557Z,79.14
2023-02-07T05:52:48.465Z,78.99
2023-02-07T05:55:16.512Z,78.44
2023-02-07T05:57:45.612Z,80.91
2023-02-07T06:00:15.559Z,81.05
2023-02-07T06:02:43.707Z,79.70
2023-02-07T06:05:13.444Z,81.06
2023-02-07T06:07:40.871Z,79.77
2023-02-07T06:10:10.534Z,79.24
2023-02-07T06:12:38.137Z,79.43
2023-02-07T06:15:05.938Z,78.40
2023-02-07T06:17:33.574Z,79.00
2023-02-07T06:20:00.990Z,78.63
2023-02-07T06:22:28.425Z,79.75
2023-02-07T06:24:55.826Z,78.89
2023-02-07T06:27:24.627Z,78.03
2023-02-07T06:29:52.038Z,78.71
2023-02-07T06:32:19.477Z,78.46
2023-02-07T06:34:46.872Z,77.59
2023-02-07T06:37:14.477Z,77.81
2023-02-07T06:39:41.928Z,78.10
2023-02-07T06:42:09.433Z,78.23
2023-02-07T06:44:38.149Z,79.32
2023-02-07T06:47:05.715Z,78.65
2023-02-07T06:49:33.165Z,78.15
2023-02-07T06:52:00.624Z,77.34
2023-02-07T06:54:28.208Z,77.60
2023-02-07T06:56:55.630Z,78.03
2023-02-07T06:59:23.026Z,77.81
2023-02-07T07:01:51.829Z,77.12
2023-02-07T07:04:19.342Z,77.36
2023-02-07T07:06:47.869Z,76.17
2023-02-07T07:09:15.313Z,77.59
2023-02-07T07:11:44.304Z,75.68
2023-02-07T07:14:12.455Z,76.39
2023-02-07T07:16:41.622Z,78.56
2023-02-07T07:19:10.378Z,78.28
2023-02-07T07:21:37.776Z,77.81
2023-02-07T07:24:05.780Z,78.00
2023-02-07T07:26:47.888Z,77.08
2023-02-07T07:29:16.868Z,77.07
2023-02-07T07:31:44.423Z,78.03
2023-02-07T07:34:13.741Z,76.80
2023-02-07T07:36:41.247Z,76.45
2023-02-07T07:39:08.967Z,76.27
2023-02-07T07:41:36.424Z,76.90
2023-02-07T07:44:04.022Z,76.40
2023-02-07T07:46:31.524Z,76.33
2023-02-07T07:48:59.074Z,78.24
2023-02-07T07:51:27.832Z,77.77
2023-02-07T07:53:55.271Z,76.21
2023-02-07T07:56:22.653Z,77.31
2023-02-07T07:58:50.098Z,76.50
2023-02-07T08:01:17.928Z,76.98
2023-02-07T08:03:45.417Z,77.63
2023-02-07T08:06:12.872Z,77.71
2023-02-07T08:08:41.871Z,77.26
2023-02-07T08:11:10.949Z,78.67
2023-02-07T08:13:38.853Z,78.21
2023-02-07T08:16:08.626Z,77.85
2023-02-07T08:18:36.469Z,77.93
2023-02-07T08:21:04.450Z,77.06
2023-02-07T08:23:31.897Z,76.70
2023-02-07T08:26:00.673Z,76.13
2023-02-07T08:28:28.748Z,76.60
2023-02-07T08:31:00.247Z,76.10
2023-02-07T08:33:30.185Z,76.19
2023-02-07T08:35:58.445Z,75.71
2023-02-07T08:38:25.877Z,75.89
2023-02-07T08:40:53.377Z,75.24
2023-02-07T08:43:22.090Z,75.27
2023-02-07T08:45:50.209Z,74.42
2023-02-07T08:48:17.890Z,74.20
2023-02-07T08:50:45.303Z,74.80
2023-02-07T08:53:12.982Z,74.24
2023-02-07T08:55:41.825Z,74.25
2023-02-07T08:58:09.546Z,74.58
2023-02-07T09:00:39.229Z,72.91
2023-02-07T09:03:07.248Z,73.30
2023-02-07T09:05:34.738Z,74.16
2023-02-07T09:08:02.854Z,72.31
2023-02-07T09:10:30.573Z,72.36
2023-02-07T09:12:57.992Z,73.29
2023-02-07T09:15:26.247Z,72.55
2023-02-07T09:17:54.994Z,71.88
2023-02-07T09:20:22.446Z,71.82
2023-02-07T09:23:07.335Z,71.41
2023-02-07T09:25:34.762Z,70.82
2023-02-07T09:28:02.233Z,70.33
2023-02-07T09:30:29.697Z,70.65
2023-02-07T09:32:59.206Z,70.40
2023-02-07T09:35:26.704Z,69.75
2023-02-07T09:41:50.281Z,68.61
2023-02-07T09:44:25.725Z,69.35
2023-02-07T09:46:59.195Z,68.00
2023-02-07T09:49:36.915Z,69.08
2023-02-07T09:52:06.618Z,70.79
2023-02-07T09:54:39.268Z,69.87
2023-02-07T09:57:11.061Z,70.99
2023-02-07T09:59:47.401Z,70.96
2023-02-07T10:02:21.755Z,71.94
2023-02-07T10:04:52.688Z,71.27
2023-02-07T10:07:20.293Z,73.13
2023-02-07T10:09:48.406Z,70.87
2023-02-07T10:12:41.603Z,69.40
2023-02-07T10:15:28.212Z,68.74
2023-02-07T10:18:12.836Z,67.88
2023-02-07T10:20:47.333Z,68.66
2023-02-07T10:23:29.124Z,68.29
2023-02-07T10:26:12.076Z,67.90
2023-02-07T10:28:59.731Z,68.40
2023-02-07T10:31:29.518Z,68.37
2023-02-07T10:34:05.225Z,67.76
2023-02-07T10:36:34.827Z,68.30
2023-02-07T10:39:09.842Z,68.29
2023-02-07T10:41:39.729Z,67.31
2023-02-07T10:44:10.733Z,67.48
2023-02-07T10:46:39.577Z,65.64
2023-02-07T10:49:07.161Z,66.59
2023-02-07T10:51:39.572Z,66.58
2023-02-07T10:54:10.050Z,67.65
2023-02-07T10:56:43.018Z,67.47
2023-02-07T10:59:33.369Z,66.29
2023-02-07T11:02:01.181Z,66.17
2023-02-07T11:04:36.343Z,66.98
2023-02-07T11:07:07.471Z,66.43
2023-02-07T11:09:37.680Z,66.51
2023-02-07T11:12:16.365Z,67.71
2023-02-07T11:15:01.256Z,67.58
2023-02-07T11:17:29.500Z,66.78
2023-02-07T11:19:57.138Z,67.45
2023-02-07T11:22:29.295Z,67.95
2023-02-07T11:25:03.593Z,66.27
2023-02-07T11:27:38.164Z,64.77
2023-02-07T11:30:09.159Z,64.16
2023-02-07T11:32:39.217Z,63.29
2023-02-07T11:35:09.459Z,63.00
2023-02-07T11:37:41.963Z,63.24
2023-02-07T11:40:24.756Z,65.37
2023-02-07T11:43:00.140Z,64.16
2023-02-07T11:45:29.014Z,64.08
2023-02-07T11:47:58.623Z,65.11
2023-02-07T11:50:30.706Z,65.77
2023-02-07T11:53:01.510Z,65.91
2023-02-07T11:55:33.908Z,63.88
2023-02-07T11:58:05.402Z,65.83
2023-02-07T12:00:37.295Z,65.41
2023-02-07T12:03:08.864Z,63.60
2023-02-07T12:05:40.224Z,62.53
2023-02-07T12:08:16.256Z,64.70
2023-02-07T12:10:46.701Z,63.68
2023-02-07T12:13:19.157Z,63.37
2023-02-07T12:15:50.502Z,63.43
2023-02-07T12:18:27.068Z,64.63
2023-02-07T12:23:43.077Z,63.98
2023-02-07T12:26:20.553Z,62.47
2023-02-07T12:29:01.308Z,63.29
2023-02-07T12:31:42.410Z,63.19
2023-02-07T12:34:18.347Z,62.71
2023-02-07T12:36:52.109Z,62.15
2023-02-07T12:39:28.291Z,61.26
2023-02-07T12:42:03.489Z,61.40
2023-02-07T12:44:35.013Z,62.12
2023-02-07T12:47:09.197Z,61.73
2023-02-07T12:49:54.914Z,60.39
2023-02-07T12:52:35.247Z,60.53
2023-02-07T12:55:20.489Z,61.26
2023-02-07T12:58:05.614Z,61.64
2023-02-07T13:00:48.666Z,61.22
2023-02-07T13:03:28.826Z,62.65
2023-02-07T13:06:05.733Z,62.25
2023-02-07T13:08:43.826Z,61.25
2023-02-07T13:11:25.444Z,87.34
2023-02-07T13:14:05.455Z,76.29
2023-02-07T13:16:40.938Z,77.06
2023-02-07T13:19:18.692Z,76.80
2023-02-07T13:21:55.113Z,71.04
2023-02-07T13:24:25.692Z,65.31
2023-02-07T13:26:58.212Z,75.22
2023-02-07T13:29:28.274Z,69.56
2023-02-07T13:31:59.232Z,70.16
2023-02-07T13:34:31.482Z,66.04
2023-02-07T13:37:05.356Z,61.61
2023-02-07T13:39:53.772Z,72.49
2023-02-07T13:42:32.079Z,59.49
2023-02-07T13:45:07.450Z,58.25
2023-02-07T13:47:51.794Z,59.42
2023-02-07T13:50:31.799Z,60.23
2023-02-07T13:53:06.209Z,63.02
2023-02-07T13:55:37.979Z,63.52
2023-02-07T13:59:03.509Z,61.56
2023-02-07T14:01:32.845Z,61.47
2023-02-07T14:04:05.388Z,60.77
2023-02-07T14:06:36.949Z,62.08
2023-02-07T14:09:11.759Z,61.96
2023-02-07T14:11:43.910Z,60.25
2023-02-07T14:14:24.065Z,62.11
2023-02-07T14:16:53.918Z,62.42
2023-02-07T14:19:49.538Z,62.08
2023-02-07T14:22:18.827Z,62.18
2023-02-07T14:24:52.458Z,63.31
2023-02-07T14:27:30.973Z,63.37
2023-02-07T14:30:17.938Z,63.67
2023-02-07T14:33:01.864Z,62.29
2023-02-07T14:35:32.684Z,62.46
2023-02-07T14:38:13.652Z,63.57
2023-02-07T14:41:09.614Z,64.24
2023-02-07T14:43:45.529Z,61.58
2023-02-07T14:46:17.760Z,60.82
2023-02-07T14:48:50.485Z,60.87
2023-02-07T14:51:21.600Z,62.48
2023-02-07T14:53:58.899Z,61.88
2023-02-07T14:56:47.250Z,61.44
2023-02-07T14:59:19.396Z,61.84
2023-02-07T15:01:48.263Z,60.66
2023-02-07T15:04:16.868Z,61.41
2023-02-07T15:06:45.718Z,59.33
2023-02-07T15:09:20.473Z,60.72
2023-02-07T15:11:53.970Z,60.88
2023-02-07T15:14:32.175Z,60.99
2023-02-07T15:17:01.480Z,60.82
2023-02-07T15:19:35.358Z,60.27
2023-02-07T15:22:05.602Z,60.33
2023-02-07T15:24:50.946Z,59.93
2023-02-07T15:27:21.648Z,60.11
2023-02-07T15:29:55.214Z,61.56
2023-02-07T15:32:27.905Z,62.27
2023-02-07T15:34:56.281Z,63.01
2023-02-07T15:37:26.043Z,61.69
2023-02-07T15:39:54.572Z,61.80
2023-02-07T15:42:22.937Z,61.87
2023-02-07T15:44:52.316Z,62.74
2023-02-07T15:47:37.367Z,63.58
2023-02-07T15:50:08.790Z,63.72
2023-02-07T15:52:41.073Z,63.00
2023-02-07T15:55:19.175Z,62.88
2023-02-07T15:57:46.697Z,62.47
2023-02-07T16:00:18.468Z,62.64
2023-02-07T16:02:56.889Z,62.37
2023-02-07T16:05:27.700Z,61.89
2023-02-07T16:07:55.860Z,62.45
2023-02-07T16:10:34.956Z,61.44
2023-02-07T16:13:03.183Z,61.50
2023-02-07T16:15:33.125Z,61.89
2023-02-07T16:18:03.257Z,63.05
2023-02-07T16:20:34.250Z,63.50
2023-02-07T16:23:04.498Z,63.53
2023-02-07T16:25:34.399Z,64.46
2023-02-07T16:28:04.678Z,64.35
2023-02-07T16:30:35.962Z,65.04
2023-02-07T16:33:06.575Z,64.55
2023-02-07T16:35:34.434Z,65.58
2023-02-07T16:38:01.941Z,65.19
2023-02-07T16:40:29.395Z,65.47
2023-02-07T16:42:57.907Z,64.97
2023-02-07T16:45:26.877Z,65.28
2023-02-07T16:47:55.288Z,65.35
2023-02-07T16:50:25.868Z,64.71
2023-02-07T16:52:56.876Z,64.75
2023-02-07T16:55:27.325Z,64.85
2023-02-07T16:57:55.867Z,65.54
2023-02-07T17:00:25.377Z,64.75
2023-02-07T17:02:53.929Z,65.19
2023-02-07T17:05:22.701Z,65.63
2023-02-07T17:07:52.040Z,65.25
2023-02-07T17:10:23.214Z,65.97
2023-02-07T17:12:50.711Z,65.54
2023-02-07T17:15:18.207Z,66.18
2023-02-07T17:17:45.872Z,64.93
2023-02-07T17:20:23.989Z,65.51
2023-02-07T17:22:53.471Z,65.14
2023-02-07T17:25:23.103Z,65.08
2023-02-07T17:27:50.669Z,65.35
2023-02-07T17:30:19.960Z,65.24
2023-02-07T17:32:47.578Z,65.84
2023-02-07T17:35:15.545Z,65.66
2023-02-07T17:37:43.262Z,65.88
2023-02-07T17:40:24.334Z,65.70
2023-02-07T17:42:51.837Z,66.71
2023-02-07T17:45:19.425Z,67.64
2023-02-07T17:47:47.004Z,67.47
2023-02-07T17:50:18.840Z,67.30
2023-02-07T17:52:46.841Z,67.37
2023-02-07T17:55:14.643Z,67.43
2023-02-07T17:57:44.294Z,66.64
2023-02-07T18:00:17.099Z,67.54
2023-02-07T18:02:47.317Z,66.46
2023-02-07T18:05:15.782Z,65.22
2023-02-07T18:07:43.405Z,66.68
2023-02-07T18:10:16.676Z,67.65
2023-02-07T18:12:45.555Z,67.73
2023-02-07T18:15:13.951Z,67.75
2023-02-07T18:17:47.092Z,67.57
2023-02-07T18:20:16.821Z,68.60
2023-02-07T18:22:44.260Z,68.24
2023-02-07T18:25:12.025Z,67.97
2023-02-07T18:27:39.475Z,67.50
2023-02-07T18:30:09.458Z,68.53
2023-02-07T18:32:36.960Z,68.04
2023-02-07T18:35:05.766Z,68.25
2023-02-07T18:37:33.513Z,69.03
2023-02-07T18:40:00.989Z,69.55
2023-02-07T18:42:29.868Z,68.88
2023-02-07T18:44:57.300Z,69.23
2023-02-07T18:47:26.644Z,70.07
2023-02-07T18:49:54.090Z,70.67
2023-02-07T18:52:21.557Z,70.14
2023-02-07T18:54:48.968Z,69.64
2023-02-07T18:57:16.515Z,70.17
2023-02-07T18:59:43.998Z,69.75
2023-02-07T19:02:13.074Z,70.55
2023-02-07T19:04:41.905Z,69.94
2023-02-07T19:07:09.370Z,71.01
2023-02-07T19:09:36.835Z,70.28
2023-02-07T19:12:04.638Z,69.85
2023-02-07T19:14:32.654Z,69.68
2023-02-07T19:17:01.105Z,69.63
2023-02-07T19:19:30.880Z,70.12
2023-02-07T19:22:00.345Z,69.85
2023-02-07T19:24:28.320Z,70.51
2023-02-07T19:26:57.286Z,70.72
2023-02-07T19:29:31.505Z,71.26
2023-02-07T19:32:00.965Z,71.33
2023-02-07T19:34:28.805Z,70.73
2023-02-07T19:36:56.636Z,71.20
2023-02-07T19:39:25.436Z,71.32
2023-02-07T19:41:53.273Z,71.27
2023-02-07T19:44:20.935Z,71.11
2023-02-07T19:46:48.478Z,71.63
2023-02-07T19:49:18.543Z,71.07
2023-02-07T19:51:46.012Z,71.00
2023-02-07T19:54:15.282Z,70.62
2023-02-07T19:56:44.241Z,70.65
2023-02-07T19:59:11.728Z,70.40
2023-02-07T20:01:39.301Z,70.62
2023-02-07T20:04:06.949Z,71.08
2023-02-07T20:06:35.785Z,70.89
2023-02-07T20:09:05.833Z,70.97
2023-02-07T20:11:36.250Z,71.29
2023-02-07T20:14:07.831Z,71.45
2023-02-07T20:16:39.602Z,72.48
2023-02-07T20:19:08.245Z,72.01
2023-02-07T20:21:37.349Z,71.71
2023-02-07T20:24:05.653Z,72.78
2023-02-07T20:26:39.668Z,72.45
2023-02-07T20:29:12.706Z,73.05
2023-02-07T20:31:40.436Z,73.70
2023-02-07T20:34:08.838Z,72.76
2023-02-07T20:36:40.770Z,72.80
2023-02-07T20:39:11.307Z,73.19
2023-02-07T20:41:41.467Z,73.24
2023-02-07T20:44:14.711Z,73.91
2023-02-07T20:46:46.588Z,73.49
2023-02-07T20:49:17.277Z,73.90
2023-02-07T20:51:45.633Z,73.51
2023-02-07T20:54:13.765Z,73.44
2023-02-07T20:56:41.324Z,73.76
2023-02-07T20:59:15.922Z,74.47
2023-02-07T21:01:43.327Z,73.04
2023-02-07T21:04:10.812Z,72.45
2023-02-07T21:06:38.459Z,73.46
2023-02-07T21:09:08.245Z,73.80
2023-02-07T21:11:38.066Z,74.01
2023-02-07T21:14:07.387Z,74.07
2023-02-07T21:16:36.540Z,73.78
2023-02-07T21:19:04.225Z,74.53
2023-02-07T21:21:32.175Z,74.82
2023-02-07T21:24:02.468Z,73.64
2023-02-07T21:26:32.577Z,73.38
2023-02-07T21:29:04.408Z,73.92
2023-02-07T21:31:34.863Z,73.91
2023-02-07T21:34:05.091Z,74.44
2023-02-07T21:36:34.381Z,73.70
2023-02-07T21:39:04.485Z,73.87
2023-02-07T21:41:32.218Z,73.89
2023-02-07T21:44:00.383Z,73.84
2023-02-07T21:46:30.145Z,73.13
2023-02-07T21:49:00.395Z,72.76
2023-02-07T21:51:31.367Z,73.27
2023-02-07T21:53:59.349Z,72.88
2023-02-07T21:56:29.236Z,71.86
2023-02-07T21:58:58.777Z,72.34
2023-02-07T22:01:27.185Z,71.79
2023-02-07T22:03:56.614Z,72.70
2023-02-07T22:06:24.671Z,72.79
2023-02-07T22:08:56.238Z,72.82
2023-02-07T22:11:25.629Z,72.81
2023-02-07T22:13:54.731Z,72.43
2023-02-07T22:16:24.422Z,72.15
2023-02-07T22:18:53.320Z,72.75
2023-02-07T22:21:23.472Z,72.34
2023-02-07T22:23:52.963Z,72.15
2023-02-07T22:26:20.701Z,72.49
2023-02-07T22:28:48.846Z,71.61
2023-02-07T22:31:19.267Z,71.60
2023-02-07T22:33:46.893Z,71.36
2023-02-07T22:36:15.371Z,71.59
2023-02-07T22:38:43.290Z,72.75
2023-02-07T22:41:12.315Z,72.16
2023-02-07T22:43:40.337Z,75.44
2023-02-07T22:46:13.855Z,79.74
2023-02-07T22:48:41.709Z,76.61
2023-02-07T22:51:13.476Z,74.90
2023-02-07T22:53:41.586Z,74.38
2023-02-07T22:56:09.569Z,74.44
2023-02-07T22:58:38.685Z,78.39
2023-02-07T23:01:07.806Z,78.31
2023-02-07T23:03:35.849Z,79.15
2023-02-07T23:06:04.637Z,77.76
2023-02-07T23:08:32.049Z,75.53
2023-02-07T23:10:59.619Z,77.75
2023-02-07T23:13:27.066Z,79.51
2023-02-07T23:15:55.848Z,81.41
2023-02-07T23:18:24.760Z,85.16
2023-02-07T23:20:52.836Z,74.10
2023-02-07T23:23:22.056Z,72.90
2023-02-07T23:25:49.769Z,72.81
2023-02-07T23:28:17.284Z,73.47
2023-02-07T23:30:44.974Z,73.95
2023-02-07T23:33:13.779Z,74.17
2023-02-07T23:35:41.195Z,73.86
2023-02-07T23:38:08.656Z,73.83
2023-02-07T23:40:36.081Z,74.90
2023-02-07T23:43:03.542Z,76.31
2023-02-07T23:45:30.972Z,76.83
2023-02-07T23:47:58.428Z,75.76
2023-02-07T23:50:29.193Z,75.14
2023-02-07T23:52:56.602Z,76.23
2023-02-07T23:55:24.067Z,75.77
2023-02-07T23:57:51.700Z,74.46
